Time;durP1;ratioP1;P1;durP2;ratioP2;P2;SDS_P1;SDS_P2;PMS_P1;PMS_P2;Temp;Humidity;BMP_temperature;BMP_pressure;BME280_temperature;BME280_humidity;BME280_pressure;Samples;Min_cycle;Max_cycle;Signal;HPM_P1;HPM_P2
2021/05/30 00:02:24;;;;;;;19.92;11.50;;;;;;;;;;5005553;28;20594;-71
2021/05/30 00:04:50;;;;;;;19.33;11.43;;;;;;;;;;5009654;28;20033;-71
2021/05/30 00:07:22;;;;;;;18.70;11.90;;;;;;;;;;5008027;28;20025;-71
2021/05/30 00:09:48;;;;;;;18.58;11.55;;;;;;;;;;5009866;28;20502;-71
2021/05/30 00:12:14;;;;;;;19.40;10.98;;;;;;;;;;5012243;28;20030;-70
2021/05/30 00:14:40;;;;;;;18.65;11.82;;;;;;;;;;5010394;28;20026;-70
2021/05/30 00:17:06;;;;;;;20.40;11.70;;;;;;;;;;5009294;28;20498;-71
2021/05/30 00:19:32;;;;;;;20.35;10.88;;;;;;;;;;5009887;28;20034;-71
2021/05/30 00:21:58;;;;;;;20.52;11.82;;;;;;;;;;5010293;28;20037;-71
2021/05/30 00:24:24;;;;;;;17.40;10.00;;;;;;;;;;5009469;28;20033;-71
2021/05/30 00:26:50;;;;;;;19.00;10.90;;;;;;;;;;5013427;28;20101;-71
2021/05/30 00:29:16;;;;;;;20.88;11.07;;;;;;;;;;5009936;28;20142;-71
2021/05/30 00:31:42;;;;;;;15.85;9.82;;;;;;;;;;5009865;28;20165;-71
2021/05/30 00:34:08;;;;;;;21.35;11.50;;;;;;;;;;5007097;28;20030;-72
2021/05/30 00:36:34;;;;;;;22.02;10.45;;;;;;;;;;5008470;28;20038;-72
2021/05/30 00:39:00;;;;;;;17.20;9.93;;;;;;;;;;5009534;28;20026;-72
2021/05/30 00:41:26;;;;;;;17.08;10.80;;;;;;;;;;5006911;28;20030;-72
2021/05/30 00:43:54;;;;;;;19.67;11.23;;;;;;;;;;5009851;28;20026;-72
2021/05/30 00:46:20;;;;;;;21.17;10.32;;;;;;;;;;5006024;28;20026;-72
2021/05/30 00:48:47;;;;;;;20.90;11.45;;;;;;;;;;5005357;28;20496;-72
2021/05/30 00:51:13;;;;;;;18.17;10.93;;;;;;;;;;5009733;28;20056;-72
2021/05/30 00:53:39;;;;;;;20.48;11.00;;;;;;;;;;5008073;28;20030;-72
2021/05/30 00:56:06;;;;;;;25.27;11.77;;;;;;;;;;5004063;28;20137;-72
2021/05/30 00:58:33;;;;;;;24.02;12.25;;;;;;;;;;4993926;28;20092;-72
2021/05/30 01:00:59;;;;;;;20.67;12.20;;;;;;;;;;5005615;28;20514;-72
2021/05/30 01:03:25;;;;;;;22.70;11.43;;;;;;;;;;5010071;28;20061;-72
2021/05/30 01:05:51;;;;;;;19.17;11.32;;;;;;;;;;5006473;28;20049;-72
2021/05/30 01:08:25;;;;;;;19.42;11.77;;;;;;;;;;5007679;28;20060;-72
2021/05/30 01:10:52;;;;;;;22.70;10.40;;;;;;;;;;5010076;28;20025;-72
2021/05/30 01:13:18;;;;;;;21.10;11.30;;;;;;;;;;5005002;28;20030;-73
2021/05/30 01:15:47;;;;;;;20.45;10.68;;;;;;;;;;5017596;28;20048;-72
2021/05/30 01:18:15;;;;;;;20.20;10.77;;;;;;;;;;5009168;28;20336;-72
2021/05/30 01:20:41;;;;;;;16.77;10.35;;;;;;;;;;5013136;28;20406;-72
2021/05/30 01:23:07;;;;;;;22.40;12.00;;;;;;;;;;5018958;28;20505;-72
2021/05/30 01:25:33;;;;;;;16.15;9.77;;;;;;;;;;5019158;28;20022;-72
2021/05/30 01:27:59;;;;;;;23.92;11.35;;;;;;;;;;5013968;28;20033;-72
2021/05/30 01:30:25;;;;;;;15.95;11.02;;;;;;;;;;5011477;28;20030;-72
2021/05/30 01:32:52;;;;;;;15.88;10.10;;;;;;;;;;5012018;28;20022;-73
2021/05/30 01:35:18;;;;;;;17.80;11.05;;;;;;;;;;5011172;28;20022;-72
2021/05/30 01:37:44;;;;;;;20.50;10.38;;;;;;;;;;5011045;28;20037;-72
2021/05/30 01:40:10;;;;;;;24.40;11.68;;;;;;;;;;5020147;28;20022;-72
2021/05/30 01:42:37;;;;;;;21.45;10.85;;;;;;;;;;5011894;28;20034;-72
2021/05/30 01:45:03;;;;;;;19.50;10.38;;;;;;;;;;5012067;28;20026;-72
2021/05/30 01:47:29;;;;;;;17.10;10.85;;;;;;;;;;5011800;28;20556;-72
2021/05/30 01:49:55;;;;;;;20.27;10.52;;;;;;;;;;5012163;28;20026;-72
2021/05/30 01:52:21;;;;;;;21.20;11.18;;;;;;;;;;5027840;28;20022;-72
2021/05/30 01:54:50;;;;;;;16.58;11.00;;;;;;;;;;5020744;28;20030;-72
2021/05/30 01:57:16;;;;;;;20.88;11.75;;;;;;;;;;5020390;28;20450;-72
2021/05/30 01:59:44;;;;;;;17.88;11.30;;;;;;;;;;5011521;28;20036;-72
2021/05/30 02:02:10;;;;;;;18.65;10.88;;;;;;;;;;5010372;28;20025;-72
2021/05/30 02:04:40;;;;;;;21.95;11.68;;;;;;;;;;5006644;28;20030;-72
2021/05/30 02:07:07;;;;;;;18.35;10.95;;;;;;;;;;5010946;28;20372;-72
2021/05/30 02:09:36;;;;;;;19.98;11.80;;;;;;;;;;5020457;28;20464;-72
2021/05/30 02:12:02;;;;;;;21.80;11.35;;;;;;;;;;5011565;28;20490;-72
2021/05/30 02:14:28;;;;;;;18.42;10.60;;;;;;;;;;5021042;28;20598;-72
2021/05/30 02:16:54;;;;;;;17.73;10.85;;;;;;;;;;5011943;28;20699;-72
2021/05/30 02:19:20;;;;;;;20.75;10.95;;;;;;;;;;5012142;28;20033;-72
2021/05/30 02:21:47;;;;;;;18.85;11.07;;;;;;;;;;5027127;28;20026;-72
2021/05/30 02:24:14;;;;;;;20.63;11.05;;;;;;;;;;5007744;28;20494;-72
2021/05/30 02:26:40;;;;;;;23.27;11.35;;;;;;;;;;5009820;28;20488;-72
2021/05/30 02:29:06;;;;;;;18.92;11.00;;;;;;;;;;5021234;28;20022;-72
2021/05/30 02:31:32;;;;;;;20.02;12.13;;;;;;;;;;5004186;28;20106;-72
2021/05/30 02:33:59;;;;;;;19.70;11.70;;;;;;;;;;5011308;28;20058;-72
2021/05/30 02:36:25;;;;;;;19.27;11.45;;;;;;;;;;5011557;28;20030;-72
2021/05/30 02:38:51;;;;;;;22.73;12.07;;;;;;;;;;5011700;28;20026;-72
2021/05/30 02:41:17;;;;;;;19.48;11.77;;;;;;;;;;5010925;28;20037;-72
2021/05/30 02:43:43;;;;;;;23.92;11.75;;;;;;;;;;5022522;28;20026;-72
2021/05/30 02:46:09;;;;;;;18.90;10.88;;;;;;;;;;5013272;28;20376;-72
2021/05/30 02:48:36;;;;;;;20.08;12.55;;;;;;;;;;5011267;28;20368;-72
2021/05/30 02:51:03;;;;;;;17.98;11.38;;;;;;;;;;5009328;28;20037;-72
2021/05/30 02:53:30;;;;;;;18.05;11.35;;;;;;;;;;5010140;28;20030;-72
2021/05/30 02:55:56;;;;;;;22.05;11.73;;;;;;;;;;5011143;28;20049;-72
2021/05/30 02:58:23;;;;;;;17.88;11.10;;;;;;;;;;5009025;28;20077;-72
2021/05/30 03:00:49;;;;;;;20.10;11.38;;;;;;;;;;5014704;28;20096;-72
2021/05/30 03:03:15;;;;;;;21.65;11.63;;;;;;;;;;5013030;28;20444;-72
2021/05/30 03:05:41;;;;;;;18.35;11.25;;;;;;;;;;5015651;28;20380;-72
2021/05/30 03:08:07;;;;;;;18.83;10.55;;;;;;;;;;5010024;28;20145;-72
2021/05/30 03:10:33;;;;;;;22.98;11.55;;;;;;;;;;5010810;28;20100;-72
2021/05/30 03:12:59;;;;;;;21.02;11.70;;;;;;;;;;5017199;28;20022;-72
2021/05/30 03:15:26;;;;;;;20.85;11.50;;;;;;;;;;5012692;28;20026;-72
2021/05/30 03:17:52;;;;;;;19.65;10.65;;;;;;;;;;5009298;28;20072;-72
2021/05/30 03:20:18;;;;;;;19.58;11.93;;;;;;;;;;5010844;28;20033;-72
2021/05/30 03:22:44;;;;;;;19.83;10.38;;;;;;;;;;5026296;28;20053;-72
2021/05/30 03:25:10;;;;;;;18.92;10.95;;;;;;;;;;5010768;28;20468;-72
2021/05/30 03:27:36;;;;;;;24.50;11.65;;;;;;;;;;5010473;28;20050;-72
2021/05/30 03:30:02;;;;;;;20.40;10.63;;;;;;;;;;5010722;28;20440;-72
2021/05/30 03:32:28;;;;;;;17.25;10.07;;;;;;;;;;5010560;28;20105;-72
2021/05/30 03:34:54;;;;;;;20.25;10.13;;;;;;;;;;5009470;28;20114;-72
2021/05/30 03:37:20;;;;;;;19.95;10.13;;;;;;;;;;5008516;28;20029;-72
2021/05/30 03:39:47;;;;;;;18.10;10.38;;;;;;;;;;5009173;28;20030;-72
2021/05/30 03:42:25;;;;;;;17.60;9.43;;;;;;;;;;5011807;28;20052;-72
2021/05/30 03:44:51;;;;;;;19.67;10.75;;;;;;;;;;5009086;28;20053;-72
2021/05/30 03:47:17;;;;;;;21.17;11.02;;;;;;;;;;5009889;28;20060;-72
2021/05/30 03:49:43;;;;;;;21.42;10.52;;;;;;;;;;5009602;28;20022;-72
2021/05/30 03:52:12;;;;;;;18.33;11.27;;;;;;;;;;5010684;28;20387;-73
2021/05/30 03:54:38;;;;;;;18.48;9.98;;;;;;;;;;5010429;28;20037;-72
2021/05/30 03:57:04;;;;;;;20.42;10.68;;;;;;;;;;5009040;28;20022;-72
2021/05/30 03:59:30;;;;;;;18.98;10.68;;;;;;;;;;5004105;28;20026;-72
2021/05/30 04:01:56;;;;;;;17.70;11.20;;;;;;;;;;5010363;28;20463;-72
2021/05/30 04:04:22;;;;;;;19.45;10.73;;;;;;;;;;5005399;28;20480;-72
2021/05/30 04:06:48;;;;;;;15.48;9.98;;;;;;;;;;5009341;28;20022;-72
2021/05/30 04:09:14;;;;;;;19.30;10.70;;;;;;;;;;5010220;28;20731;-72
2021/05/30 04:11:40;;;;;;;24.98;11.25;;;;;;;;;;5010060;28;20022;-72
2021/05/30 04:14:06;;;;;;;19.63;9.82;;;;;;;;;;5010278;28;20022;-72
2021/05/30 04:16:32;;;;;;;23.08;10.77;;;;;;;;;;5025503;28;20080;-72
2021/05/30 04:18:58;;;;;;;17.77;11.15;;;;;;;;;;5009149;28;20018;-72
2021/05/30 04:21:24;;;;;;;26.10;12.40;;;;;;;;;;5016877;28;20670;-72
2021/05/30 04:23:49;;;;;;;23.27;11.82;;;;;;;;;;5009356;28;20037;-73
2021/05/30 04:26:15;;;;;;;22.50;10.63;;;;;;;;;;5010500;28;20109;-72
2021/05/30 04:28:42;;;;;;;18.80;10.13;;;;;;;;;;5008533;28;20018;-72
2021/05/30 04:31:08;;;;;;;22.83;11.95;;;;;;;;;;5010039;28;20022;-72
2021/05/30 04:33:34;;;;;;;22.10;11.73;;;;;;;;;;5008462;28;20124;-72
2021/05/30 04:35:59;;;;;;;20.40;11.55;;;;;;;;;;5010375;28;20387;-72
2021/05/30 04:38:25;;;;;;;20.15;11.30;;;;;;;;;;5010197;28;20076;-72
2021/05/30 04:40:51;;;;;;;20.50;11.45;;;;;;;;;;5007220;28;20037;-72
2021/05/30 04:43:17;;;;;;;24.65;12.10;;;;;;;;;;5005222;28;20030;-72
2021/05/30 04:45:44;;;;;;;20.35;11.50;;;;;;;;;;5009914;28;20213;-72
2021/05/30 04:48:10;;;;;;;21.35;10.85;;;;;;;;;;5009598;28;20022;-72
2021/05/30 04:50:38;;;;;;;22.50;10.95;;;;;;;;;;5016923;28;20026;-72
2021/05/30 04:53:03;;;;;;;22.95;11.50;;;;;;;;;;5012435;28;20021;-73
2021/05/30 04:55:29;;;;;;;19.80;11.18;;;;;;;;;;5024486;28;20114;-72
2021/05/30 04:57:55;;;;;;;18.92;10.93;;;;;;;;;;5011837;28;20048;-72
2021/05/30 05:00:21;;;;;;;24.88;10.55;;;;;;;;;;5021860;28;20077;-72
2021/05/30 05:02:47;;;;;;;15.68;9.88;;;;;;;;;;5012504;28;20495;-72
2021/05/30 05:05:14;;;;;;;15.85;9.63;;;;;;;;;;5007550;28;20069;-72
2021/05/30 05:07:41;;;;;;;25.90;10.27;;;;;;;;;;5013051;28;20033;-72
2021/05/30 05:10:07;;;;;;;23.02;11.40;;;;;;;;;;5013335;28;20029;-72
2021/05/30 05:12:33;;;;;;;24.05;10.02;;;;;;;;;;5014568;28;20018;-72
2021/05/30 05:15:00;;;;;;;17.85;9.80;;;;;;;;;;5019368;28;20022;-72
2021/05/30 05:17:26;;;;;;;16.85;9.48;;;;;;;;;;5012785;28;20037;-72
2021/05/30 05:19:51;;;;;;;18.60;10.85;;;;;;;;;;5023390;28;20022;-72
2021/05/30 05:22:17;;;;;;;19.13;10.18;;;;;;;;;;5012589;28;20037;-72
2021/05/30 05:24:44;;;;;;;25.48;10.32;;;;;;;;;;5007497;28;20058;-72
2021/05/30 05:27:10;;;;;;;21.98;9.90;;;;;;;;;;5024541;28;20124;-72
2021/05/30 05:29:36;;;;;;;15.80;9.25;;;;;;;;;;5013065;28;20481;-72
2021/05/30 05:32:03;;;;;;;16.98;11.00;;;;;;;;;;5012419;28;20033;-73
2021/05/30 05:34:28;;;;;;;15.48;9.95;;;;;;;;;;5015983;28;20014;-73
2021/05/30 05:36:54;;;;;;;17.25;9.40;;;;;;;;;;5013028;28;20032;-73
2021/05/30 05:39:20;;;;;;;17.58;10.23;;;;;;;;;;5011278;28;20037;-73
2021/05/30 05:41:49;;;;;;;20.45;10.88;;;;;;;;;;5015627;28;20041;-73
2021/05/30 05:44:15;;;;;;;21.33;10.02;;;;;;;;;;5029797;28;20025;-73
2021/05/30 05:46:41;;;;;;;18.67;10.60;;;;;;;;;;5026131;28;20061;-73
2021/05/30 05:49:07;;;;;;;16.58;9.85;;;;;;;;;;5013150;28;20479;-73
2021/05/30 05:51:33;;;;;;;17.15;9.10;;;;;;;;;;5020930;28;20081;-73
2021/05/30 05:53:59;;;;;;;15.52;10.38;;;;;;;;;;5025575;28;20021;-73
2021/05/30 05:56:25;;;;;;;19.40;9.30;;;;;;;;;;5014560;28;20033;-73
2021/05/30 05:58:51;;;;;;;14.88;8.93;;;;;;;;;;5011517;28;20029;-73
2021/05/30 06:01:17;;;;;;;20.63;9.65;;;;;;;;;;5015566;28;20038;-73
2021/05/30 06:03:43;;;;;;;14.23;8.85;;;;;;;;;;5012664;28;20022;-73
2021/05/30 06:06:09;;;;;;;14.63;8.15;;;;;;;;;;5020212;28;20033;-73
2021/05/30 06:08:35;;;;;;;12.65;8.38;;;;;;;;;;5014806;28;20034;-73
2021/05/30 06:11:01;;;;;;;14.30;7.88;;;;;;;;;;5024285;28;20511;-73
2021/05/30 06:13:27;;;;;;;14.13;9.23;;;;;;;;;;5011501;28;20101;-73
2021/05/30 06:15:53;;;;;;;15.13;7.90;;;;;;;;;;5012103;28;20502;-71
2021/05/30 06:18:22;;;;;;;10.90;7.60;;;;;;;;;;5012603;28;20030;-73
2021/05/30 06:20:48;;;;;;;17.63;8.18;;;;;;;;;;5022130;28;20029;-73
2021/05/30 06:23:14;;;;;;;13.68;7.97;;;;;;;;;;5023760;28;20061;-74
2021/05/30 06:25:44;;;;;;;16.33;7.75;;;;;;;;;;5021324;28;20036;-73
2021/05/30 06:28:10;;;;;;;;;;;;;;;;;;5012580;28;20026;-73
2021/05/30 06:30:38;;;;;;;13.05;7.88;;;;;;;;;;5011909;28;19922;-73
2021/05/30 06:33:08;;;;;;;12.32;7.78;;;;;;;;;;5012137;28;20117;-73
2021/05/30 06:35:35;;;;;;;14.25;7.97;;;;;;;;;;5010209;28;20084;-73
2021/05/30 06:38:02;;;;;;;15.13;7.53;;;;;;;;;;5005375;28;20064;-73
2021/05/30 06:40:28;;;;;;;11.85;7.70;;;;;;;;;;5015091;28;20037;-73
2021/05/30 06:42:54;;;;;;;15.55;7.82;;;;;;;;;;5015486;28;20065;-74
2021/05/30 06:45:20;;;;;;;13.35;8.55;;;;;;;;;;5011586;28;20026;-73
2021/05/30 06:47:46;;;;;;;11.18;6.97;;;;;;;;;;5006025;28;20026;-73
2021/05/30 06:50:12;;;;;;;12.52;8.00;;;;;;;;;;5011003;28;20029;-73
2021/05/30 06:52:39;;;;;;;13.85;8.57;;;;;;;;;;5019643;28;20033;-73
2021/05/30 06:55:05;;;;;;;14.02;7.57;;;;;;;;;;5020841;28;20458;-74
2021/05/30 06:57:31;;;;;;;9.85;7.25;;;;;;;;;;5011039;28;20022;-73
2021/05/30 06:59:57;;;;;;;13.77;7.95;;;;;;;;;;5014302;28;20537;-73
2021/05/30 07:02:23;;;;;;;15.23;8.07;;;;;;;;;;5011207;28;20056;-74
2021/05/30 07:04:49;;;;;;;17.75;8.82;;;;;;;;;;5005195;28;20036;-74
2021/05/30 07:07:15;;;;;;;18.33;9.10;;;;;;;;;;5017790;28;20029;-74
2021/05/30 07:09:41;;;;;;;11.32;7.25;;;;;;;;;;5004412;28;20034;-73
2021/05/30 07:12:07;;;;;;;13.10;8.27;;;;;;;;;;5000434;28;20527;-73
2021/05/30 07:14:33;;;;;;;10.63;7.75;;;;;;;;;;5018021;28;20018;-73
2021/05/30 07:16:59;;;;;;;14.70;8.40;;;;;;;;;;5002043;28;20048;-73
2021/05/30 07:19:25;;;;;;;16.55;8.30;;;;;;;;;;5001766;28;20103;-74
2021/05/30 07:21:51;;;;;;;12.48;8.68;;;;;;;;;;5001820;28;20499;-73
2021/05/30 07:24:17;;;;;;;12.52;8.65;;;;;;;;;;4998946;28;20027;-73
2021/05/30 07:26:43;;;;;;;13.98;9.10;;;;;;;;;;5008247;28;20026;-74
2021/05/30 07:29:10;;;;;;;13.35;8.70;;;;;;;;;;5010401;28;20117;-73
2021/05/30 07:31:36;;;;;;;14.68;8.18;;;;;;;;;;4996798;28;20520;-74
2021/05/30 07:34:02;;;;;;;11.07;7.90;;;;;;;;;;5000599;28;20468;-71
2021/05/30 07:36:29;;;;;;;12.50;7.88;;;;;;;;;;5002326;28;20025;-71
2021/05/30 07:38:55;;;;;;;11.57;8.43;;;;;;;;;;5007709;28;20566;-73
2021/05/30 07:41:22;;;;;;;13.00;8.48;;;;;;;;;;4999572;28;20030;-71
2021/05/30 07:43:48;;;;;;;12.70;7.88;;;;;;;;;;5003595;28;20032;-72
2021/05/30 07:46:14;;;;;;;12.10;7.78;;;;;;;;;;5016128;28;20030;-71
2021/05/30 07:48:40;;;;;;;15.55;8.48;;;;;;;;;;5012104;28;20551;-71
2021/05/30 07:51:06;;;;;;;11.02;8.52;;;;;;;;;;5003485;28;20028;-73
2021/05/30 07:53:33;;;;;;;11.70;7.80;;;;;;;;;;4999309;28;20023;-74
2021/05/30 07:55:59;;;;;;;12.48;6.97;;;;;;;;;;5002397;28;20018;-74
2021/05/30 07:58:25;;;;;;;9.40;8.10;;;;;;;;;;5005136;28;20388;-74
2021/05/30 08:00:51;;;;;;;11.75;7.97;;;;;;;;;;4999080;28;20037;-72
2021/05/30 08:03:17;;;;;;;15.30;7.93;;;;;;;;;;5006851;28;20105;-75
2021/05/30 08:05:43;;;;;;;13.15;8.32;;;;;;;;;;4996144;28;20121;-74
2021/05/30 08:08:09;;;;;;;14.70;8.32;;;;;;;;;;5021167;28;20022;-72
2021/05/30 08:10:36;;;;;;;12.30;8.02;;;;;;;;;;5018166;28;20030;-72
2021/05/30 08:13:02;;;;;;;10.30;7.35;;;;;;;;;;5013228;28;20061;-73
2021/05/30 08:15:27;;;;;;;14.65;8.82;;;;;;;;;;4997648;28;20062;-73
2021/05/30 08:17:54;;;;;;;13.00;8.32;;;;;;;;;;5005069;28;20026;-74
2021/05/30 08:20:21;;;;;;;13.77;8.27;;;;;;;;;;5004196;28;20083;-73
2021/05/30 08:22:48;;;;;;;11.40;8.20;;;;;;;;;;5025917;28;20107;-72
2021/05/30 08:25:15;;;;;;;11.88;8.05;;;;;;;;;;5002600;28;20030;-72
2021/05/30 08:27:41;;;;;;;12.50;8.00;;;;;;;;;;5006727;28;20058;-72
2021/05/30 08:30:10;;;;;;;12.18;8.10;;;;;;;;;;5013799;28;20060;-73
2021/05/30 08:32:36;;;;;;;14.73;8.43;;;;;;;;;;5021999;28;20054;-73
2021/05/30 08:35:04;;;;;;;12.60;8.23;;;;;;;;;;4997663;28;20533;-72
2021/05/30 08:37:30;;;;;;;12.48;7.97;;;;;;;;;;5000218;28;20089;-73
2021/05/30 08:39:56;;;;;;;12.27;8.07;;;;;;;;;;4999034;28;20105;-71
2021/05/30 08:42:22;;;;;;;10.38;7.65;;;;;;;;;;5013492;28;20026;-71
2021/05/30 08:44:52;;;;;;;11.23;8.00;;;;;;;;;;5012660;28;20080;-71
2021/05/30 08:47:21;;;;;;;12.15;7.80;;;;;;;;;;5006790;28;20399;-71
2021/05/30 08:49:47;;;;;;;;;;;;;;;;;;4995398;28;20549;-72
2021/05/30 08:52:13;;;;;;;14.23;8.48;;;;;;;;;;4997994;28;19905;-73
2021/05/30 08:54:39;;;;;;;12.65;8.35;;;;;;;;;;4996564;28;20014;-72
2021/05/30 08:57:05;;;;;;;11.63;8.18;;;;;;;;;;4996644;28;20023;-71
2021/05/30 08:59:37;;;;;;;12.13;7.72;;;;;;;;;;4991575;28;20048;-71
2021/05/30 09:02:10;;;;;;;11.60;7.45;;;;;;;;;;5000433;28;20162;-72
2021/05/30 09:04:38;;;;;;;11.55;8.25;;;;;;;;;;4999797;28;20018;-70
2021/05/30 09:07:04;;;;;;;12.80;7.80;;;;;;;;;;4993799;28;20031;-71
2021/05/30 09:09:43;;;;;;;11.90;7.47;;;;;;;;;;5000170;28;20479;-72
2021/05/30 09:12:34;;;;;;;10.45;7.38;;;;;;;;;;5011125;28;20025;-73
2021/05/30 09:15:03;;;;;;;13.07;8.00;;;;;;;;;;4999601;28;20030;-70
2021/05/30 09:17:29;;;;;;;11.00;7.57;;;;;;;;;;5010068;28;20035;-72
2021/05/30 09:19:58;;;;;;;10.45;7.20;;;;;;;;;;4993579;28;20049;-71
2021/05/30 09:22:25;;;;;;;10.60;7.03;;;;;;;;;;4998455;28;20025;-71
2021/05/30 09:24:51;;;;;;;10.80;7.72;;;;;;;;;;5015700;28;20153;-72
2021/05/30 09:27:18;;;;;;;13.75;7.88;;;;;;;;;;4995901;28;20027;-72
2021/05/30 09:29:45;;;;;;;10.88;7.30;;;;;;;;;;5006890;28;20414;-72
2021/05/30 09:32:11;;;;;;;15.45;7.78;;;;;;;;;;5008982;28;20146;-72
2021/05/30 09:34:38;;;;;;;14.48;8.18;;;;;;;;;;5007370;28;20085;-69
2021/05/30 09:37:05;;;;;;;13.98;8.07;;;;;;;;;;5002693;28;20042;-68
2021/05/30 09:39:34;;;;;;;13.15;8.20;;;;;;;;;;5006933;28;20510;-68
2021/05/30 09:42:19;;;;;;;11.52;7.03;;;;;;;;;;4997764;28;20075;-68
2021/05/30 09:44:58;;;;;;;10.25;7.28;;;;;;;;;;5003130;28;20036;-68
2021/05/30 09:47:45;;;;;;;11.13;6.28;;;;;;;;;;5016084;28;20400;-68
2021/05/30 09:50:12;;;;;;;11.65;7.80;;;;;;;;;;5005089;28;20026;-68
2021/05/30 09:52:41;;;;;;;12.95;5.95;;;;;;;;;;5014709;28;20454;-68
2021/05/30 09:55:14;;;;;;;12.05;6.72;;;;;;;;;;4997187;28;20021;-68
2021/05/30 09:57:40;;;;;;;11.35;6.85;;;;;;;;;;5003433;28;20028;-68
2021/05/30 10:00:08;;;;;;;13.38;6.20;;;;;;;;;;5001075;28;20025;-68
2021/05/30 10:02:34;;;;;;;12.40;7.85;;;;;;;;;;4994721;28;20523;-68
2021/05/30 10:05:00;;;;;;;12.65;7.07;;;;;;;;;;5016426;28;20054;-68
2021/05/30 10:07:26;;;;;;;12.15;7.30;;;;;;;;;;5021275;28;20480;-68
2021/05/30 10:09:53;;;;;;;11.20;6.38;;;;;;;;;;4997662;28;20030;-68
2021/05/30 10:12:19;;;;;;;9.00;6.68;;;;;;;;;;5001331;28;20025;-68
2021/05/30 10:14:45;;;;;;;9.27;5.95;;;;;;;;;;4997020;28;20142;-68
2021/05/30 10:17:12;;;;;;;10.88;6.50;;;;;;;;;;5005534;28;20031;-67
2021/05/30 10:19:47;;;;;;;11.18;6.90;;;;;;;;;;4998174;28;20407;-68
2021/05/30 10:22:17;;;;;;;12.32;6.63;;;;;;;;;;4995097;28;20399;-68
2021/05/30 10:24:44;;;;;;;;;;;;;;;;;;4997552;28;20057;-68
2021/05/30 10:27:11;;;;;;;10.68;7.30;;;;;;;;;;4995126;28;19917;-68
2021/05/30 10:29:37;;;;;;;10.85;5.85;;;;;;;;;;5000774;28;20026;-68
2021/05/30 10:32:18;;;;;;;11.20;6.38;;;;;;;;;;5000005;28;20030;-68
2021/05/30 10:35:03;;;;;;;11.52;6.40;;;;;;;;;;4999632;28;20054;-69
2021/05/30 10:37:29;;;;;;;14.55;6.75;;;;;;;;;;4996947;28;20031;-67
2021/05/30 10:39:56;;;;;;;10.85;6.45;;;;;;;;;;4997092;28;20467;-68
2021/05/30 10:42:25;;;;;;;10.23;6.63;;;;;;;;;;4995931;28;20018;-68
2021/05/30 10:45:05;;;;;;;11.25;5.95;;;;;;;;;;4997503;28;20056;-68
2021/05/30 10:47:44;;;;;;;9.65;5.90;;;;;;;;;;4998781;28;20089;-69
2021/05/30 10:50:15;;;;;;;12.27;5.93;;;;;;;;;;4997962;28;20468;-69
2021/05/30 10:52:43;;;;;;;7.90;5.53;;;;;;;;;;5010563;28;20525;-69
2021/05/30 10:55:12;;;;;;;8.57;5.90;;;;;;;;;;5003365;28;20365;-70
2021/05/30 10:57:38;;;;;;;9.57;5.65;;;;;;;;;;5018295;28;20029;-69
2021/05/30 11:00:24;;;;;;;8.00;5.25;;;;;;;;;;5021354;28;20033;-69
2021/05/30 11:03:20;;;;;;;10.93;5.47;;;;;;;;;;5016864;28;20152;-69
2021/05/30 11:05:47;;;;;;;9.00;5.45;;;;;;;;;;5008215;28;20048;-69
2021/05/30 11:08:31;;;;;;;10.40;6.13;;;;;;;;;;5017051;28;20032;-68
2021/05/30 11:11:36;;;;;;;10.85;5.82;;;;;;;;;;5015276;28;20478;-68
2021/05/30 11:14:10;;;;;;;10.65;5.60;;;;;;;;;;4959297;28;20026;-69
2021/05/30 11:16:41;;;;;;;11.52;6.88;;;;;;;;;;4970656;28;20030;-68
2021/05/30 11:19:10;;;;;;;9.75;6.38;;;;;;;;;;4988196;28;20045;-68
2021/05/30 11:21:42;;;;;;;;;;;;;;;;;;5005161;28;20022;-68
2021/05/30 11:24:11;;;;;;;9.77;6.32;;;;;;;;;;5000098;28;20015;-69
2021/05/30 11:26:38;;;;;;;9.18;6.43;;;;;;;;;;5004489;28;20117;-68
2021/05/30 11:29:04;;;;;;;10.60;5.82;;;;;;;;;;5005472;28;20492;-68
2021/05/30 11:31:30;;;;;;;10.77;6.45;;;;;;;;;;4999314;28;20022;-68
2021/05/30 11:34:07;;;;;;;12.75;6.95;;;;;;;;;;5004725;28;20022;-69
2021/05/30 11:36:35;;;;;;;9.50;6.55;;;;;;;;;;5003294;28;20014;-69
2021/05/30 11:39:06;;;;;;;8.32;5.88;;;;;;;;;;5010879;28;20022;-69
2021/05/30 11:41:34;;;;;;;9.70;5.70;;;;;;;;;;5015800;28;20088;-68
2021/05/30 11:44:06;;;;;;;10.75;6.80;;;;;;;;;;5022167;28;20068;-69
2021/05/30 11:46:34;;;;;;;10.73;6.63;;;;;;;;;;5008090;28;20097;-69
2021/05/30 11:49:03;;;;;;;11.88;6.82;;;;;;;;;;5013209;28;20111;-68
2021/05/30 11:51:47;;;;;;;12.00;6.63;;;;;;;;;;5006849;28;20053;-68
2021/05/30 11:54:14;;;;;;;13.10;6.55;;;;;;;;;;5019397;28;20041;-68
2021/05/30 11:56:44;;;;;;;10.10;5.80;;;;;;;;;;5021684;28;20556;-68
2021/05/30 11:59:10;;;;;;;11.85;7.18;;;;;;;;;;5022470;28;20017;-68
2021/05/30 12:01:47;;;;;;;12.15;6.78;;;;;;;;;;5022483;28;20026;-68
2021/05/30 12:04:19;;;;;;;11.48;7.32;;;;;;;;;;4996879;28;20387;-68
2021/05/30 12:06:46;;;;;;;8.23;6.72;;;;;;;;;;4993786;28;20023;-68
2021/05/30 12:09:12;;;;;;;9.45;5.95;;;;;;;;;;4995128;28;20027;-68
2021/05/30 12:11:38;;;;;;;10.18;6.75;;;;;;;;;;5011597;28;20271;-68
2021/05/30 12:14:05;;;;;;;9.57;5.47;;;;;;;;;;5011839;28;20499;-68
2021/05/30 12:16:31;;;;;;;11.10;6.75;;;;;;;;;;4995381;28;20365;-68
2021/05/30 12:18:58;;;;;;;13.23;6.45;;;;;;;;;;4999024;28;20076;-68
2021/05/30 12:21:25;;;;;;;10.40;6.70;;;;;;;;;;4994580;28;20632;-68
2021/05/30 12:23:52;;;;;;;11.35;6.45;;;;;;;;;;5002202;28;20387;-68
2021/05/30 12:26:18;;;;;;;11.35;7.30;;;;;;;;;;4994879;28;20027;-70
2021/05/30 12:28:44;;;;;;;8.52;5.85;;;;;;;;;;4998458;28;20037;-70
2021/05/30 12:31:12;;;;;;;11.02;6.70;;;;;;;;;;4997022;28;20068;-70
2021/05/30 12:33:58;;;;;;;13.60;6.80;;;;;;;;;;5002691;28;20014;-71
2021/05/30 12:36:30;;;;;;;9.95;6.72;;;;;;;;;;5006831;28;20026;-67
2021/05/30 12:39:01;;;;;;;10.48;6.57;;;;;;;;;;5018053;28;20460;-67
2021/05/30 12:41:32;;;;;;;11.32;7.57;;;;;;;;;;5010795;28;20045;-67
2021/05/30 12:44:05;;;;;;;10.43;6.57;;;;;;;;;;5023971;28;20120;-67
2021/05/30 12:46:31;;;;;;;9.65;6.40;;;;;;;;;;5014802;28;20364;-68
2021/05/30 12:48:57;;;;;;;10.25;6.65;;;;;;;;;;5006917;28;20021;-67
2021/05/30 12:51:26;;;;;;;11.25;6.43;;;;;;;;;;5018933;28;20105;-67
2021/05/30 12:53:52;;;;;;;12.00;6.50;;;;;;;;;;5014516;28;20494;-67
2021/05/30 12:56:23;;;;;;;8.88;6.65;;;;;;;;;;5020313;28;20018;-67
2021/05/30 12:59:08;;;;;;;10.70;5.70;;;;;;;;;;5017146;28;20048;-68
2021/05/30 13:01:36;;;;;;;7.68;5.35;;;;;;;;;;5021728;28;20026;-67
2021/05/30 13:04:25;;;;;;;10.40;5.63;;;;;;;;;;5009788;28;20487;-67
2021/05/30 13:06:54;;;;;;;8.57;6.18;;;;;;;;;;5012196;28;20037;-67
2021/05/30 13:09:20;;;;;;;8.68;6.70;;;;;;;;;;5026563;28;20041;-67
2021/05/30 13:11:46;;;;;;;10.13;6.10;;;;;;;;;;5029409;28;20040;-67
2021/05/30 13:14:26;;;;;;;10.32;7.45;;;;;;;;;;5020443;28;20060;-66
2021/05/30 13:16:52;;;;;;;9.27;7.10;;;;;;;;;;5023726;28;20460;-66
2021/05/30 13:19:18;;;;;;;8.43;6.57;;;;;;;;;;5022000;28;20350;-66
2021/05/30 13:21:44;;;;;;;10.65;7.05;;;;;;;;;;5029029;28;20487;-66
2021/05/30 13:24:11;;;;;;;9.85;6.90;;;;;;;;;;5024726;28;20017;-67
2021/05/30 13:26:47;;;;;;;9.85;6.13;;;;;;;;;;5030364;28;20021;-67
2021/05/30 13:29:20;;;;;;;9.05;6.32;;;;;;;;;;5026155;28;20034;-67
2021/05/30 13:31:46;;;;;;;11.55;7.75;;;;;;;;;;5024241;28;20029;-67
2021/05/30 13:34:12;;;;;;;11.90;6.88;;;;;;;;;;5027446;28;20120;-67
2021/05/30 13:36:38;;;;;;;10.85;6.72;;;;;;;;;;5023690;28;20112;-67
2021/05/30 13:39:04;;;;;;;14.10;8.52;;;;;;;;;;5022995;28;20075;-67
2021/05/30 13:41:30;;;;;;;11.52;6.47;;;;;;;;;;5023472;28;20030;-67
2021/05/30 13:43:57;;;;;;;12.20;6.60;;;;;;;;;;5023858;28;20028;-66
2021/05/30 13:46:23;;;;;;;9.18;5.88;;;;;;;;;;5020205;28;20060;-66
2021/05/30 13:48:52;;;;;;;9.27;6.57;;;;;;;;;;5032582;28;20422;-66
2021/05/30 13:51:19;;;;;;;10.20;6.47;;;;;;;;;;5024778;28;20113;-66
2021/05/30 13:53:46;;;;;;;9.60;6.68;;;;;;;;;;5024130;28;20034;-66
2021/05/30 13:56:13;;;;;;;10.70;7.03;;;;;;;;;;5013742;28;20423;-66
2021/05/30 13:58:39;;;;;;;12.75;7.75;;;;;;;;;;5018330;28;20040;-66
2021/05/30 14:01:06;;;;;;;10.25;6.93;;;;;;;;;;5018376;28;20029;-66
2021/05/30 14:03:32;;;;;;;10.27;7.38;;;;;;;;;;5019459;28;20477;-66
2021/05/30 14:05:57;;;;;;;11.23;7.13;;;;;;;;;;5026050;28;20033;-66
2021/05/30 14:08:23;;;;;;;11.85;7.65;;;;;;;;;;5029435;28;20034;-66
2021/05/30 14:10:49;;;;;;;10.88;7.28;;;;;;;;;;5028674;28;20031;-66
2021/05/30 14:13:15;;;;;;;9.40;7.40;;;;;;;;;;5026804;28;20104;-66
2021/05/30 14:15:41;;;;;;;16.30;7.70;;;;;;;;;;5021596;28;20502;-66
2021/05/30 14:18:07;;;;;;;10.40;7.60;;;;;;;;;;5027170;28;20171;-66
2021/05/30 14:20:33;;;;;;;13.05;7.63;;;;;;;;;;5023940;28;20391;-66
2021/05/30 14:23:00;;;;;;;13.43;7.88;;;;;;;;;;5029249;28;20069;-66
2021/05/30 14:25:26;;;;;;;8.77;6.28;;;;;;;;;;5026262;28;20111;-66
2021/05/30 14:27:55;;;;;;;11.48;6.70;;;;;;;;;;5026288;28;20079;-67
2021/05/30 14:30:21;;;;;;;;;;;;;;;;;;5011427;28;20026;-67
2021/05/30 14:32:47;;;;;;;13.05;8.23;;;;;;;;;;5019442;28;20286;-71